sensor_id;sensor_type;location;lat;lon;timestamp;P1;durP1;ratioP1;P2;durP2;ratioP2
77222;SDS011;66218;48.928;9.140;2023-07-22T00:02:21;1.85;;;0.98;;
77222;SDS011;66218;48.928;9.140;2023-07-22T00:04:47;2.05;;;1.15;;
77222;SDS011;66218;48.928;9.140;2023-07-22T00:07:13;3.15;;;1.42;;
77222;SDS011;66218;48.928;9.140;2023-07-22T00:09:38;3.50;;;0.90;;
77222;SDS011;66218;48.928;9.140;2023-07-22T00:12:04;3.05;;;1.10;;
77222;SDS011;66218;48.928;9.140;2023-07-22T00:14:29;3.75;;;1.40;;
77222;SDS011;66218;48.928;9.140;2023-07-22T00:16:55;3.10;;;1.13;;
77222;SDS011;66218;48.928;9.140;2023-07-22T00:19:20;3.23;;;0.97;;
77222;SDS011;66218;48.928;9.140;2023-07-22T00:21:45;1.58;;;0.80;;
77222;SDS011;66218;48.928;9.140;2023-07-22T00:24:11;3.10;;;1.03;;
77222;SDS011;66218;48.928;9.140;2023-07-22T00:26:36;2.80;;;1.00;;
77222;SDS011;66218;48.928;9.140;2023-07-22T00:29:01;2.90;;;0.95;;
77222;SDS011;66218;48.928;9.140;2023-07-22T00:31:27;2.08;;;0.70;;
77222;SDS011;66218;48.928;9.140;2023-07-22T00:33:52;2.75;;;1.17;;
77222;SDS011;66218;48.928;9.140;2023-07-22T00:36:17;1.83;;;1.07;;
77222;SDS011;66218;48.928;9.140;2023-07-22T00:38:43;3.00;;;1.00;;
77222;SDS011;66218;48.928;9.140;2023-07-22T00:41:08;2.93;;;1.17;;
77222;SDS011;66218;48.928;9.140;2023-07-22T00:43:33;2.03;;;0.90;;
77222;SDS011;66218;48.928;9.140;2023-07-22T00:45:58;3.17;;;1.10;;
77222;SDS011;66218;48.928;9.140;2023-07-22T00:48:24;3.55;;;1.15;;
77222;SDS011;66218;48.928;9.140;2023-07-22T00:50:50;3.55;;;1.30;;
77222;SDS011;66218;48.928;9.140;2023-07-22T00:53:15;6.37;;;1.70;;
77222;SDS011;66218;48.928;9.140;2023-07-22T00:55:40;2.67;;;0.80;;
77222;SDS011;66218;48.928;9.140;2023-07-22T00:58:06;2.53;;;1.15;;
77222;SDS011;66218;48.928;9.140;2023-07-22T01:00:31;1.97;;;1.07;;
77222;SDS011;66218;48.928;9.140;2023-07-22T01:02:57;3.00;;;0.90;;
77222;SDS011;66218;48.928;9.140;2023-07-22T01:05:22;1.38;;;0.80;;
77222;SDS011;66218;48.928;9.140;2023-07-22T01:07:47;2.95;;;1.30;;
77222;SDS011;66218;48.928;9.140;2023-07-22T01:10:13;1.73;;;1.00;;
77222;SDS011;66218;48.928;9.140;2023-07-22T01:12:38;2.53;;;1.00;;
77222;SDS011;66218;48.928;9.140;2023-07-22T01:15:03;1.13;;;0.73;;
77222;SDS011;66218;48.928;9.140;2023-07-22T01:17:32;4.40;;;0.93;;
77222;SDS011;66218;48.928;9.140;2023-07-22T01:19:57;3.57;;;1.40;;
77222;SDS011;66218;48.928;9.140;2023-07-22T01:22:23;3.00;;;1.08;;
77222;SDS011;66218;48.928;9.140;2023-07-22T01:24:48;1.83;;;0.97;;
77222;SDS011;66218;48.928;9.140;2023-07-22T01:27:13;4.93;;;0.90;;
77222;SDS011;66218;48.928;9.140;2023-07-22T01:29:39;5.40;;;1.17;;
77222;SDS011;66218;48.928;9.140;2023-07-22T01:32:04;2.80;;;1.00;;
77222;SDS011;66218;48.928;9.140;2023-07-22T01:34:30;1.83;;;0.80;;
77222;SDS011;66218;48.928;9.140;2023-07-22T01:36:56;2.40;;;1.40;;
77222;SDS011;66218;48.928;9.140;2023-07-22T01:39:21;3.77;;;1.20;;
77222;SDS011;66218;48.928;9.140;2023-07-22T01:41:47;2.33;;;1.17;;
77222;SDS011;66218;48.928;9.140;2023-07-22T01:44:12;4.40;;;1.73;;
77222;SDS011;66218;48.928;9.140;2023-07-22T01:46:38;3.13;;;1.17;;
77222;SDS011;66218;48.928;9.140;2023-07-22T01:49:05;2.57;;;1.13;;
77222;SDS011;66218;48.928;9.140;2023-07-22T01:51:31;3.75;;;1.23;;
77222;SDS011;66218;48.928;9.140;2023-07-22T01:53:57;1.85;;;1.00;;
77222;SDS011;66218;48.928;9.140;2023-07-22T01:56:22;2.93;;;1.20;;
77222;SDS011;66218;48.928;9.140;2023-07-22T01:58:48;5.00;;;1.10;;
77222;SDS011;66218;48.928;9.140;2023-07-22T02:01:13;4.05;;;1.42;;
77222;SDS011;66218;48.928;9.140;2023-07-22T02:03:41;2.75;;;1.23;;
77222;SDS011;66218;48.928;9.140;2023-07-22T02:06:07;2.70;;;1.15;;
77222;SDS011;66218;48.928;9.140;2023-07-22T02:08:32;2.23;;;1.30;;
77222;SDS011;66218;48.928;9.140;2023-07-22T02:11:02;6.40;;;1.20;;
77222;SDS011;66218;48.928;9.140;2023-07-22T02:13:29;1.88;;;1.20;;
77222;SDS011;66218;48.928;9.140;2023-07-22T02:15:54;3.08;;;1.50;;
77222;SDS011;66218;48.928;9.140;2023-07-22T02:18:19;1.97;;;1.10;;
77222;SDS011;66218;48.928;9.140;2023-07-22T02:20:44;2.63;;;1.47;;
77222;SDS011;66218;48.928;9.140;2023-07-22T02:23:09;2.40;;;1.03;;
77222;SDS011;66218;48.928;9.140;2023-07-22T02:25:35;2.10;;;1.17;;
77222;SDS011;66218;48.928;9.140;2023-07-22T02:28:01;1.88;;;1.00;;
77222;SDS011;66218;48.928;9.140;2023-07-22T02:30:26;4.07;;;1.13;;
77222;SDS011;66218;48.928;9.140;2023-07-22T02:32:51;3.70;;;1.73;;
77222;SDS011;66218;48.928;9.140;2023-07-22T02:35:16;2.03;;;1.25;;
77222;SDS011;66218;48.928;9.140;2023-07-22T02:37:42;4.13;;;2.00;;
77222;SDS011;66218;48.928;9.140;2023-07-22T02:40:07;4.60;;;1.60;;
77222;SDS011;66218;48.928;9.140;2023-07-22T02:42:38;3.30;;;1.48;;
77222;SDS011;66218;48.928;9.140;2023-07-22T02:45:04;2.35;;;0.98;;
77222;SDS011;66218;48.928;9.140;2023-07-22T02:47:29;3.28;;;1.50;;
77222;SDS011;66218;48.928;9.140;2023-07-22T02:49:55;2.63;;;1.60;;
77222;SDS011;66218;48.928;9.140;2023-07-22T02:52:20;3.70;;;1.80;;
77222;SDS011;66218;48.928;9.140;2023-07-22T02:55:03;1.93;;;1.20;;
77222;SDS011;66218;48.928;9.140;2023-07-22T02:57:29;5.18;;;1.92;;
77222;SDS011;66218;48.928;9.140;2023-07-22T02:59:54;4.20;;;1.90;;
77222;SDS011;66218;48.928;9.140;2023-07-22T03:02:19;3.37;;;1.53;;
77222;SDS011;66218;48.928;9.140;2023-07-22T03:04:44;4.30;;;2.17;;
77222;SDS011;66218;48.928;9.140;2023-07-22T03:07:09;1.73;;;1.20;;
77222;SDS011;66218;48.928;9.140;2023-07-22T03:09:35;6.57;;;2.58;;
77222;SDS011;66218;48.928;9.140;2023-07-22T03:12:00;6.37;;;2.00;;
77222;SDS011;66218;48.928;9.140;2023-07-22T03:14:25;3.50;;;1.60;;
77222;SDS011;66218;48.928;9.140;2023-07-22T03:16:51;3.72;;;2.03;;
77222;SDS011;66218;48.928;9.140;2023-07-22T03:19:16;4.45;;;1.92;;
77222;SDS011;66218;48.928;9.140;2023-07-22T03:21:41;3.53;;;1.70;;
77222;SDS011;66218;48.928;9.140;2023-07-22T03:24:07;4.50;;;2.30;;
77222;SDS011;66218;48.928;9.140;2023-07-22T03:26:32;2.47;;;1.53;;
77222;SDS011;66218;48.928;9.140;2023-07-22T03:28:57;4.43;;;1.70;;
77222;SDS011;66218;48.928;9.140;2023-07-22T03:31:22;3.43;;;1.83;;
77222;SDS011;66218;48.928;9.140;2023-07-22T03:33:48;3.13;;;1.52;;
77222;SDS011;66218;48.928;9.140;2023-07-22T03:36:14;4.43;;;2.20;;
77222;SDS011;66218;48.928;9.140;2023-07-22T03:38:40;3.93;;;2.07;;
77222;SDS011;66218;48.928;9.140;2023-07-22T03:41:05;5.60;;;2.10;;
77222;SDS011;66218;48.928;9.140;2023-07-22T03:43:30;3.58;;;1.90;;
77222;SDS011;66218;48.928;9.140;2023-07-22T03:45:55;3.17;;;1.57;;
77222;SDS011;66218;48.928;9.140;2023-07-22T03:48:20;5.70;;;2.30;;
77222;SDS011;66218;48.928;9.140;2023-07-22T03:50:46;3.47;;;1.57;;
77222;SDS011;66218;48.928;9.140;2023-07-22T03:53:11;4.57;;;1.90;;
77222;SDS011;66218;48.928;9.140;2023-07-22T03:55:36;4.80;;;1.97;;
77222;SDS011;66218;48.928;9.140;2023-07-22T03:58:01;4.57;;;1.83;;
77222;SDS011;66218;48.928;9.140;2023-07-22T04:00:26;8.07;;;1.53;;
77222;SDS011;66218;48.928;9.140;2023-07-22T04:02:51;2.87;;;1.60;;
77222;SDS011;66218;48.928;9.140;2023-07-22T04:05:17;3.33;;;1.98;;
77222;SDS011;66218;48.928;9.140;2023-07-22T04:07:44;3.03;;;1.43;;
77222;SDS011;66218;48.928;9.140;2023-07-22T04:10:09;3.38;;;1.77;;
77222;SDS011;66218;48.928;9.140;2023-07-22T04:12:34;4.10;;;2.23;;
77222;SDS011;66218;48.928;9.140;2023-07-22T04:15:00;3.97;;;1.47;;
77222;SDS011;66218;48.928;9.140;2023-07-22T04:17:25;4.20;;;1.60;;
77222;SDS011;66218;48.928;9.140;2023-07-22T04:19:51;3.90;;;1.93;;
77222;SDS011;66218;48.928;9.140;2023-07-22T04:22:16;3.50;;;2.05;;
77222;SDS011;66218;48.928;9.140;2023-07-22T04:24:41;2.63;;;1.43;;
77222;SDS011;66218;48.928;9.140;2023-07-22T04:27:06;4.87;;;2.40;;
77222;SDS011;66218;48.928;9.140;2023-07-22T04:29:32;3.47;;;1.50;;
77222;SDS011;66218;48.928;9.140;2023-07-22T04:31:58;3.50;;;1.42;;
77222;SDS011;66218;48.928;9.140;2023-07-22T04:34:24;2.88;;;1.52;;
77222;SDS011;66218;48.928;9.140;2023-07-22T04:36:50;4.28;;;1.15;;
77222;SDS011;66218;48.928;9.140;2023-07-22T04:39:16;4.03;;;1.60;;
77222;SDS011;66218;48.928;9.140;2023-07-22T04:41:41;3.43;;;1.73;;
77222;SDS011;66218;48.928;9.140;2023-07-22T04:44:06;3.37;;;1.77;;
77222;SDS011;66218;48.928;9.140;2023-07-22T04:46:31;2.30;;;1.40;;
77222;SDS011;66218;48.928;9.140;2023-07-22T04:48:56;2.20;;;1.23;;
77222;SDS011;66218;48.928;9.140;2023-07-22T04:51:23;6.03;;;1.67;;
77222;SDS011;66218;48.928;9.140;2023-07-22T04:53:48;4.03;;;1.73;;
77222;SDS011;66218;48.928;9.140;2023-07-22T04:56:13;3.63;;;1.80;;
77222;SDS011;66218;48.928;9.140;2023-07-22T04:58:38;3.57;;;1.50;;
77222;SDS011;66218;48.928;9.140;2023-07-22T05:01:04;5.37;;;2.03;;
77222;SDS011;66218;48.928;9.140;2023-07-22T05:03:29;3.40;;;1.77;;
77222;SDS011;66218;48.928;9.140;2023-07-22T05:05:54;8.47;;;1.73;;
77222;SDS011;66218;48.928;9.140;2023-07-22T05:08:19;2.65;;;1.55;;
77222;SDS011;66218;48.928;9.140;2023-07-22T05:10:45;3.50;;;1.80;;
77222;SDS011;66218;48.928;9.140;2023-07-22T05:13:10;3.70;;;1.58;;
77222;SDS011;66218;48.928;9.140;2023-07-22T05:15:35;6.63;;;1.90;;
77222;SDS011;66218;48.928;9.140;2023-07-22T05:18:00;6.43;;;1.90;;
77222;SDS011;66218;48.928;9.140;2023-07-22T05:20:26;3.13;;;1.57;;
77222;SDS011;66218;48.928;9.140;2023-07-22T05:22:51;4.05;;;1.50;;
77222;SDS011;66218;48.928;9.140;2023-07-22T05:25:17;5.63;;;1.90;;
77222;SDS011;66218;48.928;9.140;2023-07-22T05:27:42;3.47;;;1.70;;
77222;SDS011;66218;48.928;9.140;2023-07-22T05:30:07;4.90;;;2.07;;
77222;SDS011;66218;48.928;9.140;2023-07-22T05:32:32;4.05;;;1.60;;
77222;SDS011;66218;48.928;9.140;2023-07-22T05:34:58;8.87;;;1.87;;
77222;SDS011;66218;48.928;9.140;2023-07-22T05:37:23;3.53;;;1.73;;
77222;SDS011;66218;48.928;9.140;2023-07-22T05:39:48;2.72;;;1.67;;
77222;SDS011;66218;48.928;9.140;2023-07-22T05:42:14;3.70;;;1.83;;
77222;SDS011;66218;48.928;9.140;2023-07-22T05:44:39;5.30;;;1.47;;
77222;SDS011;66218;48.928;9.140;2023-07-22T05:47:04;3.53;;;1.53;;
77222;SDS011;66218;48.928;9.140;2023-07-22T05:49:29;5.45;;;1.85;;
77222;SDS011;66218;48.928;9.140;2023-07-22T05:51:55;6.43;;;1.90;;
77222;SDS011;66218;48.928;9.140;2023-07-22T05:54:20;3.13;;;1.67;;
77222;SDS011;66218;48.928;9.140;2023-07-22T05:56:46;5.90;;;2.05;;
77222;SDS011;66218;48.928;9.140;2023-07-22T05:59:11;3.30;;;1.60;;
77222;SDS011;66218;48.928;9.140;2023-07-22T06:01:36;3.13;;;1.10;;
77222;SDS011;66218;48.928;9.140;2023-07-22T06:04:03;3.03;;;1.30;;
77222;SDS011;66218;48.928;9.140;2023-07-22T06:06:28;3.70;;;1.50;;
77222;SDS011;66218;48.928;9.140;2023-07-22T06:08:53;2.70;;;1.23;;
77222;SDS011;66218;48.928;9.140;2023-07-22T06:11:19;2.13;;;1.20;;
77222;SDS011;66218;48.928;9.140;2023-07-22T06:13:44;2.50;;;1.10;;
77222;SDS011;66218;48.928;9.140;2023-07-22T06:16:10;2.97;;;1.10;;
77222;SDS011;66218;48.928;9.140;2023-07-22T06:18:35;3.13;;;1.07;;
77222;SDS011;66218;48.928;9.140;2023-07-22T06:21:00;2.03;;;1.10;;
77222;SDS011;66218;48.928;9.140;2023-07-22T06:23:25;4.03;;;1.60;;
77222;SDS011;66218;48.928;9.140;2023-07-22T06:25:50;3.33;;;1.10;;
77222;SDS011;66218;48.928;9.140;2023-07-22T06:28:17;4.28;;;1.25;;
77222;SDS011;66218;48.928;9.140;2023-07-22T06:30:42;2.80;;;1.17;;
77222;SDS011;66218;48.928;9.140;2023-07-22T06:33:07;4.90;;;1.13;;
77222;SDS011;66218;48.928;9.140;2023-07-22T06:35:32;3.37;;;1.20;;
77222;SDS011;66218;48.928;9.140;2023-07-22T06:37:57;1.80;;;1.20;;
77222;SDS011;66218;48.928;9.140;2023-07-22T06:40:24;2.53;;;1.10;;
77222;SDS011;66218;48.928;9.140;2023-07-22T06:42:49;2.05;;;1.05;;
77222;SDS011;66218;48.928;9.140;2023-07-22T06:45:14;2.00;;;1.10;;
77222;SDS011;66218;48.928;9.140;2023-07-22T06:47:39;3.50;;;1.23;;
77222;SDS011;66218;48.928;9.140;2023-07-22T06:50:05;3.10;;;1.17;;
77222;SDS011;66218;48.928;9.140;2023-07-22T06:52:33;3.17;;;1.30;;
77222;SDS011;66218;48.928;9.140;2023-07-22T06:54:58;1.95;;;0.90;;
77222;SDS011;66218;48.928;9.140;2023-07-22T06:57:23;1.92;;;0.85;;
77222;SDS011;66218;48.928;9.140;2023-07-22T06:59:51;2.55;;;0.80;;
77222;SDS011;66218;48.928;9.140;2023-07-22T07:02:16;2.00;;;0.95;;
77222;SDS011;66218;48.928;9.140;2023-07-22T07:04:41;2.93;;;0.93;;
77222;SDS011;66218;48.928;9.140;2023-07-22T07:07:06;3.47;;;1.03;;
77222;SDS011;66218;48.928;9.140;2023-07-22T07:09:31;3.00;;;1.37;;
77222;SDS011;66218;48.928;9.140;2023-07-22T07:11:57;2.93;;;1.07;;
77222;SDS011;66218;48.928;9.140;2023-07-22T07:14:22;2.90;;;1.20;;
77222;SDS011;66218;48.928;9.140;2023-07-22T07:18:53;1.80;;;0.98;;
77222;SDS011;66218;48.928;9.140;2023-07-22T07:21:19;3.42;;;0.95;;
77222;SDS011;66218;48.928;9.140;2023-07-22T07:23:44;3.37;;;0.90;;
77222;SDS011;66218;48.928;9.140;2023-07-22T07:26:10;2.53;;;1.00;;
77222;SDS011;66218;48.928;9.140;2023-07-22T07:28:35;4.05;;;1.45;;
77222;SDS011;66218;48.928;9.140;2023-07-22T07:31:00;4.20;;;1.30;;
77222;SDS011;66218;48.928;9.140;2023-07-22T07:33:26;3.50;;;1.40;;
77222;SDS011;66218;48.928;9.140;2023-07-22T07:35:51;3.13;;;1.37;;
77222;SDS011;66218;48.928;9.140;2023-07-22T07:43:06;2.75;;;0.80;;
77222;SDS011;66218;48.928;9.140;2023-07-22T07:45:31;1.73;;;0.70;;
77222;SDS011;66218;48.928;9.140;2023-07-22T07:47:57;2.43;;;0.97;;
77222;SDS011;66218;48.928;9.140;2023-07-22T07:50:22;2.20;;;0.87;;
77222;SDS011;66218;48.928;9.140;2023-07-22T07:52:47;2.00;;;1.20;;
77222;SDS011;66218;48.928;9.140;2023-07-22T07:55:12;1.50;;;0.70;;
77222;SDS011;66218;48.928;9.140;2023-07-22T08:00:03;3.58;;;1.20;;
77222;SDS011;66218;48.928;9.140;2023-07-22T08:02:28;6.82;;;1.20;;
77222;SDS011;66218;48.928;9.140;2023-07-22T08:04:54;2.33;;;1.00;;
77222;SDS011;66218;48.928;9.140;2023-07-22T08:07:19;1.60;;;0.85;;
77222;SDS011;66218;48.928;9.140;2023-07-22T08:10:18;4.07;;;1.00;;
77222;SDS011;66218;48.928;9.140;2023-07-22T08:12:43;3.13;;;1.30;;
77222;SDS011;66218;48.928;9.140;2023-07-22T08:15:09;3.15;;;1.30;;
77222;SDS011;66218;48.928;9.140;2023-07-22T08:19:59;2.78;;;0.95;;
77222;SDS011;66218;48.928;9.140;2023-07-22T08:22:24;2.80;;;0.87;;
77222;SDS011;66218;48.928;9.140;2023-07-22T08:24:50;1.93;;;0.83;;
77222;SDS011;66218;48.928;9.140;2023-07-22T08:27:15;2.07;;;1.10;;
77222;SDS011;66218;48.928;9.140;2023-07-22T08:29:40;2.73;;;0.80;;
77222;SDS011;66218;48.928;9.140;2023-07-22T08:32:05;2.23;;;0.80;;
77222;SDS011;66218;48.928;9.140;2023-07-22T08:34:31;3.45;;;1.17;;
77222;SDS011;66218;48.928;9.140;2023-07-22T08:36:56;2.70;;;1.10;;
77222;SDS011;66218;48.928;9.140;2023-07-22T08:39:21;1.83;;;0.93;;
77222;SDS011;66218;48.928;9.140;2023-07-22T08:41:49;2.17;;;0.80;;
77222;SDS011;66218;48.928;9.140;2023-07-22T08:44:20;4.32;;;1.20;;
77222;SDS011;66218;48.928;9.140;2023-07-22T08:46:46;3.45;;;1.13;;
77222;SDS011;66218;48.928;9.140;2023-07-22T08:51:37;2.55;;;1.02;;
77222;SDS011;66218;48.928;9.140;2023-07-22T08:56:27;2.30;;;1.20;;
77222;SDS011;66218;48.928;9.140;2023-07-22T08:58:53;2.55;;;1.23;;
77222;SDS011;66218;48.928;9.140;2023-07-22T09:06:07;2.65;;;0.95;;
77222;SDS011;66218;48.928;9.140;2023-07-22T09:08:32;2.20;;;0.90;;
77222;SDS011;66218;48.928;9.140;2023-07-22T09:10:58;5.03;;;1.13;;
77222;SDS011;66218;48.928;9.140;2023-07-22T09:15:48;2.63;;;1.02;;
77222;SDS011;66218;48.928;9.140;2023-07-22T09:20:40;1.98;;;1.10;;
77222;SDS011;66218;48.928;9.140;2023-07-22T09:23:07;3.15;;;1.02;;
77222;SDS011;66218;48.928;9.140;2023-07-22T09:27:58;3.85;;;0.90;;
77222;SDS011;66218;48.928;9.140;2023-07-22T09:30:25;1.83;;;0.75;;
77222;SDS011;66218;48.928;9.140;2023-07-22T09:32:51;3.35;;;1.08;;
77222;SDS011;66218;48.928;9.140;2023-07-22T09:35:17;1.60;;;0.82;;
77222;SDS011;66218;48.928;9.140;2023-07-22T09:37:43;3.28;;;0.90;;
77222;SDS011;66218;48.928;9.140;2023-07-22T09:42:34;1.98;;;0.93;;
77222;SDS011;66218;48.928;9.140;2023-07-22T09:47:24;1.13;;;1.00;;
77222;SDS011;66218;48.928;9.140;2023-07-22T09:52:15;1.95;;;0.90;;
77222;SDS011;66218;48.928;9.140;2023-07-22T09:57:05;2.40;;;0.70;;
77222;SDS011;66218;48.928;9.140;2023-07-22T10:01:56;2.40;;;0.80;;
77222;SDS011;66218;48.928;9.140;2023-07-22T10:04:25;2.92;;;1.05;;
77222;SDS011;66218;48.928;9.140;2023-07-22T10:06:52;2.80;;;1.10;;
77222;SDS011;66218;48.928;9.140;2023-07-22T10:11:42;1.92;;;0.70;;
77222;SDS011;66218;48.928;9.140;2023-07-22T10:16:32;2.05;;;0.98;;
77222;SDS011;66218;48.928;9.140;2023-07-22T10:18:58;1.63;;;0.70;;
77222;SDS011;66218;48.928;9.140;2023-07-22T10:23:49;2.20;;;0.70;;
77222;SDS011;66218;48.928;9.140;2023-07-22T10:28:53;2.05;;;0.85;;
77222;SDS011;66218;48.928;9.140;2023-07-22T10:31:20;3.90;;;0.70;;
77222;SDS011;66218;48.928;9.140;2023-07-22T10:33:47;0.75;;;0.60;;
77222;SDS011;66218;48.928;9.140;2023-07-22T10:36:13;1.08;;;0.50;;
77222;SDS011;66218;48.928;9.140;2023-07-22T10:38:39;1.35;;;0.75;;
77222;SDS011;66218;48.928;9.140;2023-07-22T10:41:14;1.23;;;0.70;;
77222;SDS011;66218;48.928;9.140;2023-07-22T10:43:42;1.80;;;0.82;;
77222;SDS011;66218;48.928;9.140;2023-07-22T10:46:11;1.80;;;0.50;;
77222;SDS011;66218;48.928;9.140;2023-07-22T10:48:38;0.50;;;0.47;;
77222;SDS011;66218;48.928;9.140;2023-07-22T10:51:07;1.15;;;0.55;;
77222;SDS011;66218;48.928;9.140;2023-07-22T10:53:36;1.80;;;0.82;;
77222;SDS011;66218;48.928;9.140;2023-07-22T10:56:03;1.25;;;0.52;;
77222;SDS011;66218;48.928;9.140;2023-07-22T10:58:32;0.98;;;0.47;;
77222;SDS011;66218;48.928;9.140;2023-07-22T11:06:32;1.80;;;0.60;;
77222;SDS011;66218;48.928;9.140;2023-07-22T11:08:58;1.27;;;0.60;;
77222;SDS011;66218;48.928;9.140;2023-07-22T11:11:38;2.80;;;0.80;;
77222;SDS011;66218;48.928;9.140;2023-07-22T11:16:38;0.88;;;0.52;;
77222;SDS011;66218;48.928;9.140;2023-07-22T11:19:04;1.10;;;0.60;;
77222;SDS011;66218;48.928;9.140;2023-07-22T11:21:29;1.98;;;0.77;;
77222;SDS011;66218;48.928;9.140;2023-07-22T11:23:54;1.50;;;0.60;;
77222;SDS011;66218;48.928;9.140;2023-07-22T11:26:20;1.73;;;0.80;;
77222;SDS011;66218;48.928;9.140;2023-07-22T11:31:10;1.13;;;0.60;;
77222;SDS011;66218;48.928;9.140;2023-07-22T11:36:00;2.35;;;0.60;;
77222;SDS011;66218;48.928;9.140;2023-07-22T11:40:51;2.28;;;1.05;;
77222;SDS011;66218;48.928;9.140;2023-07-22T11:45:42;3.63;;;1.33;;
77222;SDS011;66218;48.928;9.140;2023-07-22T11:50:33;4.80;;;1.58;;
77222;SDS011;66218;48.928;9.140;2023-07-22T11:55:23;2.55;;;0.60;;
77222;SDS011;66218;48.928;9.140;2023-07-22T11:57:52;3.05;;;1.38;;
77222;SDS011;66218;48.928;9.140;2023-07-22T12:00:17;2.15;;;1.10;;
77222;SDS011;66218;48.928;9.140;2023-07-22T12:02:43;3.10;;;1.42;;
77222;SDS011;66218;48.928;9.140;2023-07-22T12:05:08;9.67;;;2.10;;
77222;SDS011;66218;48.928;9.140;2023-07-22T12:07:35;2.60;;;0.93;;
77222;SDS011;66218;48.928;9.140;2023-07-22T12:10:02;3.38;;;1.50;;
77222;SDS011;66218;48.928;9.140;2023-07-22T12:12:33;1.55;;;1.00;;
77222;SDS011;66218;48.928;9.140;2023-07-22T12:15:18;3.75;;;0.80;;
77222;SDS011;66218;48.928;9.140;2023-07-22T12:17:44;2.50;;;1.30;;
77222;SDS011;66218;48.928;9.140;2023-07-22T12:20:10;1.45;;;0.90;;
77222;SDS011;66218;48.928;9.140;2023-07-22T12:22:36;3.25;;;1.35;;
77222;SDS011;66218;48.928;9.140;2023-07-22T12:27:26;2.63;;;0.98;;
77222;SDS011;66218;48.928;9.140;2023-07-22T12:32:16;1.40;;;0.70;;
77222;SDS011;66218;48.928;9.140;2023-07-22T12:34:42;2.20;;;0.90;;
77222;SDS011;66218;48.928;9.140;2023-07-22T12:37:07;1.43;;;0.60;;
77222;SDS011;66218;48.928;9.140;2023-07-22T12:39:32;3.13;;;0.90;;
77222;SDS011;66218;48.928;9.140;2023-07-22T12:41:57;2.80;;;1.00;;
77222;SDS011;66218;48.928;9.140;2023-07-22T12:44:23;1.90;;;0.82;;
77222;SDS011;66218;48.928;9.140;2023-07-22T12:46:48;2.27;;;0.83;;
77222;SDS011;66218;48.928;9.140;2023-07-22T12:49:13;2.37;;;0.70;;
77222;SDS011;66218;48.928;9.140;2023-07-22T12:51:38;3.00;;;0.97;;
77222;SDS011;66218;48.928;9.140;2023-07-22T12:54:03;3.13;;;1.47;;
77222;SDS011;66218;48.928;9.140;2023-07-22T12:56:29;3.77;;;1.77;;
77222;SDS011;66218;48.928;9.140;2023-07-22T12:58:54;3.40;;;1.47;;
77222;SDS011;66218;48.928;9.140;2023-07-22T13:01:19;2.33;;;0.90;;
77222;SDS011;66218;48.928;9.140;2023-07-22T13:03:44;3.87;;;1.03;;
77222;SDS011;66218;48.928;9.140;2023-07-22T13:06:09;1.77;;;1.00;;
77222;SDS011;66218;48.928;9.140;2023-07-22T13:08:35;1.93;;;0.97;;
77222;SDS011;66218;48.928;9.140;2023-07-22T13:11:00;3.42;;;1.67;;
77222;SDS011;66218;48.928;9.140;2023-07-22T13:13:25;2.63;;;1.40;;
77222;SDS011;66218;48.928;9.140;2023-07-22T13:15:50;1.63;;;0.90;;
77222;SDS011;66218;48.928;9.140;2023-07-22T13:18:16;2.90;;;0.63;;
77222;SDS011;66218;48.928;9.140;2023-07-22T13:20:41;2.00;;;1.00;;
77222;SDS011;66218;48.928;9.140;2023-07-22T13:23:07;5.82;;;2.63;;
77222;SDS011;66218;48.928;9.140;2023-07-22T13:25:32;3.77;;;1.40;;
77222;SDS011;66218;48.928;9.140;2023-07-22T13:30:22;1.83;;;0.73;;
77222;SDS011;66218;48.928;9.140;2023-07-22T13:32:47;1.47;;;0.70;;
77222;SDS011;66218;48.928;9.140;2023-07-22T13:35:13;5.13;;;1.45;;
77222;SDS011;66218;48.928;9.140;2023-07-22T13:37:38;2.75;;;1.00;;
77222;SDS011;66218;48.928;9.140;2023-07-22T13:40:04;3.63;;;1.80;;
77222;SDS011;66218;48.928;9.140;2023-07-22T13:42:34;3.00;;;0.80;;
77222;SDS011;66218;48.928;9.140;2023-07-22T13:45:00;2.87;;;1.10;;
77222;SDS011;66218;48.928;9.140;2023-07-22T13:47:25;2.33;;;1.00;;
77222;SDS011;66218;48.928;9.140;2023-07-22T13:49:50;1.03;;;0.73;;
77222;SDS011;66218;48.928;9.140;2023-07-22T13:52:15;3.37;;;1.17;;
77222;SDS011;66218;48.928;9.140;2023-07-22T13:54:40;1.83;;;0.77;;
77222;SDS011;66218;48.928;9.140;2023-07-22T13:57:06;1.87;;;0.87;;
77222;SDS011;66218;48.928;9.140;2023-07-22T13:59:31;2.38;;;1.10;;
77222;SDS011;66218;48.928;9.140;2023-07-22T14:01:57;1.63;;;0.90;;
77222;SDS011;66218;48.928;9.140;2023-07-22T14:04:22;3.30;;;1.50;;
77222;SDS011;66218;48.928;9.140;2023-07-22T14:09:12;2.00;;;1.30;;
77222;SDS011;66218;48.928;9.140;2023-07-22T14:14:03;2.28;;;1.17;;
77222;SDS011;66218;48.928;9.140;2023-07-22T14:16:28;2.90;;;1.17;;
77222;SDS011;66218;48.928;9.140;2023-07-22T14:18:53;3.83;;;1.30;;
77222;SDS011;66218;48.928;9.140;2023-07-22T14:21:20;2.58;;;0.98;;
77222;SDS011;66218;48.928;9.140;2023-07-22T14:23:45;2.90;;;1.15;;
77222;SDS011;66218;48.928;9.140;2023-07-22T14:26:10;3.30;;;1.30;;
77222;SDS011;66218;48.928;9.140;2023-07-22T14:28:36;2.27;;;1.00;;
77222;SDS011;66218;48.928;9.140;2023-07-22T14:31:01;4.07;;;1.25;;
77222;SDS011;66218;48.928;9.140;2023-07-22T14:33:26;2.30;;;1.03;;
77222;SDS011;66218;48.928;9.140;2023-07-22T14:35:52;2.47;;;1.23;;
77222;SDS011;66218;48.928;9.140;2023-07-22T14:38:17;3.30;;;1.30;;
77222;SDS011;66218;48.928;9.140;2023-07-22T14:40:42;3.17;;;1.30;;
77222;SDS011;66218;48.928;9.140;2023-07-22T14:45:33;2.13;;;0.90;;
77222;SDS011;66218;48.928;9.140;2023-07-22T14:47:58;2.93;;;1.37;;
77222;SDS011;66218;48.928;9.140;2023-07-22T14:50:24;3.88;;;1.15;;
77222;SDS011;66218;48.928;9.140;2023-07-22T14:52:49;4.03;;;1.17;;
77222;SDS011;66218;48.928;9.140;2023-07-22T14:55:14;2.80;;;1.13;;
77222;SDS011;66218;48.928;9.140;2023-07-22T14:57:40;2.20;;;0.93;;
77222;SDS011;66218;48.928;9.140;2023-07-22T15:00:06;1.75;;;0.98;;
77222;SDS011;66218;48.928;9.140;2023-07-22T15:02:31;2.25;;;1.00;;
77222;SDS011;66218;48.928;9.140;2023-07-22T15:07:22;2.05;;;0.88;;
77222;SDS011;66218;48.928;9.140;2023-07-22T15:09:47;5.10;;;0.95;;
77222;SDS011;66218;48.928;9.140;2023-07-22T15:12:12;2.57;;;1.00;;
77222;SDS011;66218;48.928;9.140;2023-07-22T15:17:03;4.70;;;0.90;;
77222;SDS011;66218;48.928;9.140;2023-07-22T15:21:53;1.85;;;0.82;;
77222;SDS011;66218;48.928;9.140;2023-07-22T15:26:25;2.15;;;1.13;;
77222;SDS011;66218;48.928;9.140;2023-07-22T15:28:51;2.70;;;0.90;;
77222;SDS011;66218;48.928;9.140;2023-07-22T15:33:41;2.35;;;1.00;;
77222;SDS011;66218;48.928;9.140;2023-07-22T15:36:06;2.70;;;1.07;;
77222;SDS011;66218;48.928;9.140;2023-07-22T15:38:32;2.00;;;1.00;;
77222;SDS011;66218;48.928;9.140;2023-07-22T15:43:22;1.80;;;1.15;;
77222;SDS011;66218;48.928;9.140;2023-07-22T15:45:47;1.50;;;0.87;;
77222;SDS011;66218;48.928;9.140;2023-07-22T15:48:12;3.20;;;1.10;;
77222;SDS011;66218;48.928;9.140;2023-07-22T15:50:37;1.87;;;0.80;;
77222;SDS011;66218;48.928;9.140;2023-07-22T15:53:03;3.37;;;1.50;;
77222;SDS011;66218;48.928;9.140;2023-07-22T15:55:28;2.17;;;1.00;;
77222;SDS011;66218;48.928;9.140;2023-07-22T15:57:53;2.17;;;1.03;;
77222;SDS011;66218;48.928;9.140;2023-07-22T16:00:18;2.87;;;1.30;;
77222;SDS011;66218;48.928;9.140;2023-07-22T16:02:43;2.70;;;1.40;;
77222;SDS011;66218;48.928;9.140;2023-07-22T16:07:35;2.00;;;0.85;;
77222;SDS011;66218;48.928;9.140;2023-07-22T16:10:01;2.90;;;0.97;;
77222;SDS011;66218;48.928;9.140;2023-07-22T16:12:26;2.75;;;1.10;;
77222;SDS011;66218;48.928;9.140;2023-07-22T16:14:52;1.42;;;1.10;;
77222;SDS011;66218;48.928;9.140;2023-07-22T16:19:42;1.92;;;1.15;;
77222;SDS011;66218;48.928;9.140;2023-07-22T16:22:07;2.30;;;1.10;;
77222;SDS011;66218;48.928;9.140;2023-07-22T16:24:32;2.13;;;1.00;;
77222;SDS011;66218;48.928;9.140;2023-07-22T16:26:58;1.88;;;0.77;;